x

Frying Pan Shoals, Nc Buoy (41013) Weather Station

11:30am - Sun 16th Dec 2018 All times are EST. -5 hours from GMT.

  • Wind
    20mph, 25mph gusts
  • Air Temp 58°f
  • Sea Pressure 1015.5mb
  • Frying Pan Shoals, Nc Buoy
  • Frying Pan Shoals, Nc Buoy

More Historic Weather Station data

Upgrade to MSW Pro to gain access to the past 30 days of data for over 8000 Wavebouys and Weather Stations around the globe.

Join

Comparision Forecast

View Surf forecast
   
Sun 12/16 11:30am  -   -   -  20 25 mph 1015.5mb - 58f
11:20am  -   -   -  20 27 mph 1015.7mb 67f 58f
11:10am  -   -   -  20 25 mph 1016mb 67f 58f
11:00am  -   -   -  20 27 mph 1016.1mb 67f 58f
10:50am 5ft 8s 5s 22 27 mph 1016.3mb 67f 58f
10:40am 5ft  -  5s 22 27 mph 1016.5mb 67f 58f
10:30am  -   -   -  22 27 mph 1016.6mb 67f 58f
10:20am  -   -   -  22 25 mph 1016.6mb 67f 58f
10:10am  -   -   -  22 27 mph 1016.7mb 66f 58f
10:00am  -   -   -  20 27 mph 1016.8mb 66f 58f
9:50am 5.5ft 9s 5s 20 27 mph 1016.8mb 66f 59f
9:40am  -   -   -  20 27 mph 1016.7mb 66f 58f
9:30am  -   -   -  20 25 mph 1016.7mb 66f 58f
9:20am  -   -   -  20 27 mph 1016.7mb 66f 58f
9:10am  -   -   -  18 22 mph 1016.8mb 66f 58f
9:00am  -   -   -  18 25 mph 1016.7mb - 58f
8:50am 6ft 8s 5s 18 22 mph 1016.7mb 66f 58f
8:40am  -   -   -  20 25 mph 1016.7mb 66f 58f
8:30am  -   -   -  20 25 mph 1016.7mb 66f 58f
8:20am  -   -   -  20 25 mph 1016.6mb 66f 58f
8:10am  -   -   -  18 22 mph 1016.6mb - 58f
8:00am  -   -   -  18 25 mph 1016.6mb 66f 58f
7:50am 6ft 9s 5s 18 25 mph 1016.7mb 66f 58f
7:40am  -   -   -  18 22 mph 1016.5mb 66f 58f
7:30am  -   -   -  20 25 mph 1016.5mb 66f 58f
7:20am  -   -   -  20 27 mph 1016.4mb 66f 58f
7:10am  -   -   -  22 27 mph 1016.4mb 66f 58f
7:00am  -   -   -  22 27 mph 1016.4mb 67f 58f
6:50am 6ft 8s 5s 22 27 mph 1016.4mb 67f 58f
6:40am 6ft  -  5s 25 31 mph 1016.2mb 67f 58f
6:30am  -   -   -  25 29 mph 1015.9mb 67f 59f
6:20am  -   -   -  22 27 mph 1015.8mb 67f 59f
6:10am  -   -   -  20 25 mph 1015.7mb 67f 59f
6:00am  -   -   -  20 25 mph 1015.6mb 67f 59f
5:50am 6ft 9s 6s 20 25 mph 1015.5mb 67f 59f
5:40am  -   -   -  22 25 mph 1015.4mb 67f 60f
5:30am  -   -   -  20 27 mph 1015.4mb 67f 60f
5:20am  -   -   -  18 22 mph 1015.3mb 67f 59f
5:10am  -   -   -  18 25 mph 1015.2mb 67f 60f
5:00am  -   -   -  20 25 mph 1015.2mb 67f 60f
4:50am 5ft 8s 5s 22 27 mph 1015.1mb 67f 60f
4:40am 5ft  -  5s 22 27 mph 1015mb 68f 60f
4:30am  -   -   -  22 27 mph 1014.9mb 68f 61f
4:20am  -   -   -  22 29 mph 1014.9mb 68f 61f
4:10am  -   -   -  25 31 mph 1014.8mb 68f 62f
4:00am  -   -   -  22 27 mph 1014.8mb 68f 63f
3:50am 6ft 9s 6s 20 25 mph 1014.7mb 68f 62f
3:40am 6ft  -  6s 20 25 mph 1014.8mb 68f 63f
3:30am  -   -   -  18 25 mph 1014.9mb 68f 63f
3:20am  -   -   -  18 22 mph 1014.9mb 68f 63f
3:10am  -   -   -  18 22 mph 1014.9mb 68f 63f
3:00am  -   -   -  18 20 mph 1014.9mb 68f 63f
2:50am 5.5ft 9s 6s 16 20 mph 1014.9mb 68f 63f
2:40am 5.5ft  -  6s 18 22 mph 1014.7mb 69f 63f
2:30am  -   -   -  18 25 mph - - 64f
2:20am  -   -   -  16 20 mph 1015.2mb 69f 64f
2:10am  -   -   -  16 20 mph 1015.2mb - 64f
2:00am  -   -   -  16 18 mph 1015.3mb 69f 64f
1:50am 6ft 8s 6s 16 20 mph 1015.3mb 69f 64f
1:40am  -   -   -  16 20 mph 1015.3mb 69f 64f
1:30am  -   -   -  18 20 mph 1015.5mb 69f 64f
1:20am  -   -   -  18 22 mph 1015.6mb 69f 64f
1:10am  -   -   -  18 22 mph 1015.6mb 69f 64f
1:00am  -   -   -  18 22 mph 1015.6mb - 64f
12:50am 6ft 9s 6s 16 20 mph 1015.5mb 69f 64f
12:40am 6ft  -  6s 18 25 mph 1015.6mb 69f 64f
12:30am  -   -   -  18 22 mph 1015.7mb 69f 64f
12:20am  -   -   -  16 20 mph 1015.7mb 69f 64f
12:10am  -   -   -  16 20 mph 1015.9mb 69f 64f
12:00am  -   -   -  16 20 mph 1015.9mb 69f 64f
Sat 12/15 11:50pm 6ft 9s 6s 18 20 mph 1015.9mb 69f 64f
11:40pm 6ft  -  6s 18 22 mph 1016mb 69f 64f
11:30pm  -   -   -  18 22 mph 1016mb 69f 64f
11:20pm  -   -   -  18 22 mph 1015.9mb 69f 64f
11:10pm  -   -   -  18 22 mph 1015.9mb 69f 64f
11:00pm  -   -   -  18 22 mph 1016mb 69f 64f
10:50pm 6ft 9s 6s 18 20 mph 1016.1mb 69f 64f
10:40pm 6ft  -  6s 18 20 mph 1016.2mb 69f 64f
10:30pm  -   -   -  18 22 mph 1016.1mb 69f 64f
10:20pm  -   -   -  18 25 mph 1016.2mb 69f 64f
10:10pm  -   -   -  20 25 mph 1016.3mb 69f 64f
10:00pm  -   -   -  20 27 mph 1016.3mb 69f 64f
9:50pm 6ft 9s 6s 22 29 mph 1016mb 69f 64f
9:40pm  -   -   -  22 29 mph 1016mb 69f 64f
9:30pm  -   -   -  20 25 mph 1015.9mb 69f 63f
9:20pm  -   -   -  20 27 mph 1015.8mb 69f 64f
9:10pm  -   -   -  22 29 mph 1015.6mb 68f 64f
9:00pm  -   -   -  25 34 mph 1015.5mb 68f 64f
8:50pm 6ft 10s 6s 25 31 mph 1015.4mb 68f 65f
8:40pm 6ft  -  6s 25 31 mph 1015.4mb 68f 66f
8:30pm  -   -   -  20 27 mph 1015mb 68f 66f
8:20pm  -   -   -  18 20 mph 1015.2mb 68f 66f
8:10pm  -   -   -  16 20 mph 1015.1mb 68f 66f
8:00pm  -   -   -  16 20 mph 1015.1mb 68f 66f
7:50pm 6.5ft  -  6s 13 18 mph 1014.9mb 68f 66f
7:40pm 6.5ft 8s 6s  -  mph - - -
7:30pm  -   -   -  16 20 mph 1015.2mb 68f 66f
7:20pm  -   -   -  16 18 mph 1015.2mb 68f 66f
7:10pm  -   -   -  13 18 mph 1015mb 68f 66f
7:00pm  -   -   -  16 20 mph 1015.3mb 68f 66f
6:50pm 6.5ft 9s 6s 16 20 mph 1015.1mb 68f 66f
6:40pm 6.5ft  -  6s 16 18 mph 1014.8mb 68f 67f
6:30pm  -   -   -  16 20 mph 1015mb 68f 67f
6:20pm  -   -   -  16 20 mph 1015.1mb 69f 66f
6:10pm  -   -   -  16 20 mph 1015.1mb 69f 66f
6:00pm  -   -   -  16 20 mph 1014.9mb 69f 67f
5:50pm 6.5ft 8s 6s 16 20 mph 1014.7mb 69f 66f
5:40pm  -   -   -  16 20 mph 1014.6mb 69f 67f
5:30pm  -   -   -  16 20 mph 1014.6mb 69f 67f
5:20pm  -   -   -  16 20 mph 1014.5mb 69f 67f
5:10pm  -   -   -  16 20 mph 1014.6mb 69f 67f
5:00pm  -   -   -  16 20 mph 1014.5mb 69f 66f
4:50pm 7ft 9s 6s 18 22 mph 1014.3mb 69f 66f
4:40pm  -   -   -  20 27 mph 1014.5mb 69f 66f
4:30pm  -   -   -  20 25 mph 1014.4mb 69f 67f
4:20pm  -   -   -  18 22 mph 1014.1mb 69f 67f
4:10pm  -   -   -  18 25 mph 1014.2mb 69f 67f
4:00pm  -   -   -  20 27 mph 1014.1mb 69f 67f
3:50pm 6ft 8s 6s 20 27 mph 1014.2mb 69f 67f
3:40pm  -   -   -  20 27 mph 1014mb 69f 67f
3:30pm  -   -   -  22 27 mph 1013.6mb - 67f
3:20pm  -   -   -  22 27 mph 1013.6mb 70f 68f
3:10pm  -   -   -  22 29 mph 1013.7mb 70f 68f
3:00pm  -   -   -  20 25 mph 1013.6mb 70f 68f
2:50pm 6.5ft 9s 6s 20 25 mph 1013.5mb 70f 68f
2:40pm  -   -   -  20 27 mph 1013.2mb 70f 68f
2:30pm  -   -   -  22 27 mph 1013.2mb 70f 68f
2:20pm  -   -   -  16 22 mph 1013.4mb 70f 68f
2:10pm  -   -   -  13 20 mph 1012.7mb 70f 68f
2:00pm  -   -   -  13 18 mph 1012.9mb - 67f
1:50pm 6.5ft 8s 6s 16 22 mph 1012.9mb 70f 67f
1:40pm  -   -   -  20 27 mph 1013.5mb 70f 67f
1:30pm  -   -   -  20 27 mph 1013.4mb 70f 67f
1:20pm  -   -   -  16 22 mph 1013.3mb 70f 68f
1:10pm  -   -   -  9 11 mph 1013.2mb 70f 68f
1:00pm  -   -   -  9 11 mph 1012.9mb - 68f
12:50pm 7ft 8s 6s 9 11 mph 1013mb 69f 68f
12:40pm 7ft  -  6s 7 11 mph 1013.4mb 69f 69f
12:30pm  -   -   -  7 11 mph 1013.4mb 69f 69f
12:20pm  -   -   -  9 11 mph 1013.5mb 69f 69f
12:10pm  -   -   -  9 11 mph 1013.4mb 69f 69f
12:00pm  -   -   -  9 16 mph 1013.5mb 69f 69f
11:50am 8ft 9s 7s 9 11 mph 1013.8mb - 69f
11:40am 8ft  -  7s 11 18 mph 1013.9mb 69f 68f
11:30am  -   -   -  13 20 mph 1014.2mb - 69f
11:20am  -   -   -  18 22 mph 1014mb 69f 71f
11:10am  -   -   -  16 20 mph 1014.2mb 69f 71f
11:00am  -   -   -  16 20 mph 1014mb 69f 71f
10:50am 8ft  -  7s 13 20 mph - 69f 71f
10:40am  -   -   -  13 18 mph - 69f 71f
10:30am  -   -   -  13 16 mph 1014.6mb - 71f
10:20am  -   -   -  11 18 mph 1014.8mb 68f 71f
10:10am  -   -   -  13 18 mph 1014.9mb 68f 71f
10:00am  -   -   -  16 20 mph 1015mb 68f 71f
9:50am 7.5ft 8s 7s 11 16 mph 1015.1mb 68f 71f
9:40am 7.5ft  -  7s 13 18 mph 1015.1mb 68f 71f
9:30am  -   -   -  11 16 mph 1015.3mb 68f 71f
9:20am  -   -   -  11 16 mph 1015.5mb 68f 70f
9:10am  -   -   -  13 16 mph 1015.5mb 68f 70f
9:00am  -   -   -  13 18 mph 1015.5mb 68f 70f
8:50am 7.5ft  -  7s 11 16 mph 1015.4mb 68f -
8:40am  -   -   -  13 18 mph 1015.4mb 68f 70f
8:30am  -   -   -  13 16 mph 1015.5mb 68f 70f
8:20am  -   -   -  13 16 mph 1015.5mb 68f 70f
8:10am  -   -   -  11 13 mph 1015.4mb 68f 70f
8:00am  -   -   -  11 16 mph 1015.4mb 67f 70f
7:50am 7ft  -  7s 11 13 mph 1015.2mb 67f 70f
7:40am 7ft 9s 7s  -  mph - - -
7:30am  -   -   -  11 13 mph 1015.1mb 67f 69f
7:20am  -   -   -  11 13 mph 1015.2mb 67f 69f
7:10am  -   -   -  9 11 mph 1015.1mb 67f 69f
7:00am  -   -   -  7 9 mph 1015mb 67f 69f
6:50am 7ft 8s 7s 7 9 mph 1014.9mb 67f 69f
6:40am  -   -   -  7 9 mph 1014.9mb 68f 69f
6:30am  -   -   -  4 9 mph 1015mb 68f 69f
6:20am  -   -   -  7 9 mph 1014.9mb 68f 69f
6:10am  -   -   -  7 9 mph 1014.9mb 68f 69f
6:00am  -   -   -  4 9 mph 1014.7mb 68f 69f
5:50am 7ft 9s 7s 4 9 mph 1014.6mb 68f 69f
5:40am  -   -   -  4 7 mph 1014.5mb 68f 68f
5:30am  -   -   -  7 9 mph 1014.8mb 68f 69f
5:20am  -   -   -  7 11 mph 1014.8mb 68f 68f
5:10am  -   -   -  7 9 mph 1015.1mb 68f 68f
5:00am  -   -   -  7 9 mph 1015.1mb 68f 68f
4:50am 8ft 9s 7s 4 9 mph 1015mb 68f 68f
4:40am  -   -   -  4 9 mph 1014.4mb 68f 68f
4:30am  -   -   -  2 7 mph 1014.4mb 68f 68f
4:20am  -   -   -  4 9 mph 1014.6mb 68f 68f
4:10am  -   -   -  4 9 mph 1014.8mb 68f 68f
4:00am  -   -   -  7 9 mph - 68f 68f
3:50am 8.5ft 9s 7s 4 9 mph 1014.8mb 68f 68f
3:40am 8.5ft  -  7s 7 9 mph 1014.8mb 68f 68f
3:30am  -   -   -  7 9 mph 1015.1mb 69f 68f
3:20am  -   -   -  7 11 mph 1015.2mb 69f 68f
3:10am  -   -   -  7 11 mph 1015.5mb 69f 68f
3:00am  -   -   -  7 9 mph 1015.3mb 69f 68f
2:50am 8ft 9s 7s 9 13 mph 1015.4mb 69f 68f
2:40am  -   -   -  7 9 mph 1015.5mb 69f 69f
2:30am  -   -   -  11 16 mph 1015.8mb 69f 69f
2:20am  -   -   -  11 16 mph 1016.2mb 69f 69f
2:10am  -   -   -  11 16 mph 1016mb 69f 68f
2:00am  -   -   -  13 18 mph 1015.8mb 69f 68f
1:50am 8ft 9s 7s 16 18 mph 1016.1mb 69f 69f
1:40am 8ft  -  7s 16 20 mph 1016mb 69f 70f
1:30am  -   -   -  16 22 mph 1016mb 69f 70f
1:20am  -   -   -  11 16 mph 1016mb 69f 70f
1:10am  -   -   -  11 16 mph 1015.9mb 69f 71f
1:00am  -   -   -  11 16 mph 1015.8mb 69f 71f
12:50am 9ft 9s 7s 11 16 mph 1015.7mb 69f 71f
12:40am  -   -   -  13 18 mph 1015.8mb 69f 71f
12:30am  -   -   -  13 18 mph 1015.7mb 69f 71f
12:20am  -   -   -  16 20 mph 1015.8mb 69f 71f
12:10am  -   -   -  16 20 mph 1016mb 69f 71f
12:00am  -   -   -  18 22 mph 1016mb - 71f
Fri 12/14 11:50pm 9.5ft 9s 7s 16 20 mph 1016mb 69f 71f
11:40pm 9.5ft  -  7s 16 22 mph 1015.8mb 69f 71f
11:30pm  -   -   -  16 20 mph 1015.9mb 69f 71f
11:20pm  -   -   -  16 20 mph 1015.8mb 69f 71f
11:10pm  -   -   -  16 20 mph 1015.8mb - 71f
11:00pm  -   -   -  16 20 mph 1015.6mb 68f 71f
10:50pm 9.5ft 9s 7s 16 20 mph 1015.7mb 68f 71f
10:40pm 9.5ft  -  7s 18 20 mph 1015.9mb 68f 71f
10:30pm  -   -   -  18 20 mph 1015.6mb 68f 71f
10:20pm  -   -   -  18 22 mph 1015.9mb 69f 71f
10:10pm  -   -   -  18 22 mph 1015.9mb 69f 71f
10:00pm  -   -   -  16 20 mph 1016.1mb 68f 71f
9:50pm 10ft 9s 7s 16 20 mph 1016.2mb 68f 71f
9:40pm  -   -   -  13 18 mph 1016.3mb 68f 70f
9:30pm  -   -   -  13 18 mph 1016.5mb 68f 70f
9:20pm  -   -   -  11 16 mph 1016.6mb 68f 70f
9:10pm  -   -   -  11 16 mph 1016.7mb 68f 70f
9:00pm  -   -   -  13 18 mph 1016.8mb 68f 70f
8:50pm 10.5ft  -  7s 16 20 mph - 67f 70f
8:40pm  -   -   -  16 20 mph 1017mb 67f 70f
8:30pm  -   -   -  18 20 mph 1017.1mb 67f 70f
8:20pm  -   -   -  18 22 mph 1017.2mb 67f 70f
8:10pm  -   -   -  20 27 mph 1017.3mb 67f 70f
8:00pm  -   -   -  18 25 mph 1017.4mb 67f 70f
7:50pm 10.5ft 9s 7s 18 25 mph 1017.4mb 67f 71f
7:40pm  -   -   -  20 27 mph 1017.4mb 67f 70f
7:30pm  -   -   -  18 25 mph 1017.2mb 67f 70f
7:20pm  -   -   -  16 22 mph 1017.2mb 67f 69f
7:10pm  -   -   -  13 18 mph 1017.1mb 67f 69f
7:00pm  -   -   -  13 18 mph 1016.9mb 67f 68f
6:50pm 11ft 9s 6s 18 27 mph 1016.6mb 67f 67f
6:40pm  -   -   -  22 34 mph 1017mb 67f 68f
6:30pm  -   -   -  20 31 mph 1017mb 67f 69f
6:20pm  -   -   -  25 31 mph 1017.1mb 67f 69f
6:10pm  -   -   -  22 29 mph - 67f 69f
6:00pm  -   -   -  25 31 mph 1017.4mb 67f 69f
5:50pm 12ft 8s 7s 29 38 mph 1017.3mb 67f 69f
5:40pm 12ft  -  7s 29 38 mph 1017.2mb 67f 69f
5:30pm  -   -   -  27 36 mph 1017.3mb - 70f
5:20pm  -   -   -  27 31 mph 1016.9mb 67f 70f
5:10pm  -   -   -  25 31 mph 1017.2mb 67f 70f
5:00pm  -   -   -  25 31 mph 1017.2mb 67f 69f
4:50pm 12.5ft 9s 7s 25 34 mph 1017.5mb 67f 69f
4:40pm 12.5ft  -  7s 27 34 mph 1017.7mb 67f 69f
4:30pm  -   -   -  27 38 mph 1017.6mb 67f 70f
4:20pm  -   -   -  29 34 mph 1017.8mb 67f 70f
4:10pm  -   -   -  27 34 mph 1017.7mb 67f 70f
4:00pm  -   -   -  27 34 mph 1017.6mb 67f 70f
3:50pm 12ft 9s 7s 27 34 mph 1017.8mb 67f 70f
3:40pm 12ft  -  7s 31 40 mph 1017.8mb 67f 70f
3:30pm  -   -   -  27 36 mph 1017.9mb 67f 71f
3:20pm  -   -   -  27 38 mph 1018.1mb 67f 71f
3:10pm  -   -   -  27 38 mph 1017.9mb 67f 71f
3:00pm  -   -   -  25 34 mph 1018mb 67f 71f
2:50pm 10.5ft 8s 6s 27 34 mph 1018.2mb 67f 72f
2:40pm  -   -   -  25 31 mph 1018.3mb 68f 71f
2:30pm  -   -   -  25 29 mph 1018.6mb 67f 71f
2:20pm  -   -   -  25 31 mph 1018.6mb 67f 70f
2:10pm  -   -   -  25 34 mph 1018.8mb 68f 70f
2:00pm  -   -   -  25 34 mph 1018.9mb 68f 70f
1:50pm 10ft 8s 6s 29 36 mph 1019mb 68f 70f
1:40pm  -   -   -  29 36 mph 1019.2mb 68f 71f
1:30pm  -   -   -  27 34 mph 1019.2mb 68f 71f
1:20pm  -   -   -  25 34 mph 1019.3mb 68f 72f
1:10pm  -   -   -  22 31 mph 1019.5mb 68f 70f
1:00pm  -   -   -  22 31 mph 1019.9mb 68f 71f
12:50pm 10ft 8s 6s 25 29 mph 1019.8mb 68f 70f
12:40pm 10ft  -  6s 25 34 mph 1020mb 68f 70f
12:30pm  -   -   -  27 36 mph 1020.3mb 68f 71f
12:20pm  -   -   -  25 31 mph 1020.4mb 68f 71f
11:50am 10ft 8s 6s 25 31 mph 1021.1mb 67f 71f
11:40am 10ft  -  6s 25 34 mph 1021.3mb 67f 71f
11:30am  -   -   -  27 31 mph 1021.4mb 67f 71f
11:20am  -   -   -  25 34 mph 1021.6mb 67f 71f
11:10am  -   -   -  25 31 mph 1021.9mb 67f 71f
10:50am 9ft 7s 6s 27 34 mph 1022.4mb 67f 71f
10:40am  -   -   -  27 36 mph 1022.6mb 67f 72f
10:30am  -   -   -  25 31 mph 1022.8mb 67f 72f
10:20am  -   -   -  25 31 mph 1022.8mb 67f 72f
10:10am  -   -   -  25 34 mph 1022.6mb 66f 72f
10:00am  -   -   -  22 29 mph 1022.8mb 66f 72f
9:50am 8.5ft 7s 6s 25 34 mph 1022.7mb 66f 72f
9:40am  -   -   -  25 31 mph 1022.7mb 66f 72f
9:30am  -   -   -  22 29 mph 1022.7mb 66f 72f
9:20am  -   -   -  25 29 mph 1022.8mb 66f 72f
9:10am  -   -   -  22 29 mph 1022.7mb 66f 72f
9:00am  -   -   -  22 27 mph 1022.5mb 66f 71f
8:50am 7.5ft 6s 5s 22 25 mph 1022.4mb 66f 71f
8:40am  -   -   -  22 27 mph 1022.5mb 66f 71f
8:30am  -   -   -  20 25 mph 1022.6mb 66f 71f
8:20am  -   -   -  20 25 mph 1022.6mb 66f 71f
8:10am  -   -   -  20 27 mph 1022.5mb 66f 71f
8:00am  -   -   -  20 27 mph 1022.5mb - 71f
7:50am 7ft 6s 5s 22 29 mph 1022.6mb 66f 71f
7:40am 7ft  -  5s 20 29 mph 1022.5mb 66f 71f
7:30am  -   -   -  18 25 mph 1022.7mb 66f 71f
7:20am  -   -   -  20 25 mph 1022.5mb 66f 71f
7:10am  -   -   -  20 25 mph 1022.7mb 66f 71f
7:00am  -   -   -  20 27 mph 1022.7mb 66f 70f
6:50am 6ft 6s 5s 20 22 mph 1022.6mb 66f 70f
6:40am  -   -   -  20 25 mph 1022.7mb 67f 70f
6:30am  -   -   -  20 27 mph 1022.7mb 67f 70f
6:20am  -   -   -  18 22 mph 1022.7mb 67f 70f
6:10am  -   -   -  16 18 mph 1022.9mb 67f 70f
6:00am  -   -   -  16 20 mph 1023mb 67f 70f
5:50am 5ft 5s 5s 16 20 mph 1022.9mb 67f 70f
5:40am  -   -   -  18 22 mph 1022.7mb 67f 70f
5:30am  -   -   -  18 22 mph 1022.8mb 67f 70f
5:20am  -   -   -  18 20 mph 1022.8mb 67f 70f
5:10am  -   -   -  18 20 mph 1022.9mb 67f 70f
5:00am  -   -   -  18 22 mph 1022.8mb 67f 70f
4:50am 5ft 5s 5s 18 22 mph 1022.7mb 67f 70f
4:40am 5ft  -  5s 18 22 mph 1022.5mb - 70f
4:30am  -   -   -  18 22 mph 1022.5mb 67f 70f
4:20am  -   -   -  18 22 mph 1022.4mb 67f 70f
4:10am  -   -   -  20 25 mph 1022.5mb 67f 69f
4:00am  -   -   -  22 27 mph 1022.5mb 67f 69f
3:50am 5ft 5s 5s 20 27 mph 1022.7mb 67f 69f
3:40am 5ft  -  5s 20 27 mph 1022.7mb 67f 69f
3:30am  -   -   -  22 27 mph 1023mb - 69f
3:20am  -   -   -  20 27 mph 1023.4mb 67f 69f
3:10am  -   -   -  20 27 mph 1023.4mb 67f 69f
3:00am  -   -   -  22 27 mph 1023.6mb 67f 69f
2:50am 5ft 5s 5s 20 25 mph 1023.9mb 67f 69f
2:40am 5ft  -  5s 20 25 mph 1023.9mb 67f 69f
2:30am  -   -   -  22 29 mph 1023.7mb 67f 69f
2:20am  -   -   -  22 29 mph 1023.4mb 67f 69f
2:10am  -   -   -  22 29 mph 1023.4mb 67f 69f
2:00am  -   -   -  20 27 mph 1023.5mb 67f 69f
1:50am 3.5ft 5s 4s 20 27 mph 1023.8mb 67f 69f
1:40am  -   -   -  18 22 mph 1024.1mb - 69f
1:30am  -   -   -  18 22 mph 1024.1mb 67f 69f
1:20am  -   -   -  20 25 mph 1024.2mb 67f 69f
1:10am  -   -   -  18 22 mph 1024.1mb 67f 69f
1:00am  -   -   -  18 22 mph 1024.2mb - 69f
12:50am 3.5ft 4s 4s 18 22 mph 1024.4mb 67f 69f
12:40am  -   -   -  18 22 mph 1024.3mb 67f 69f
12:30am  -   -   -  18 25 mph 1024.4mb 67f 68f
12:20am  -   -   -  18 25 mph 1024.3mb 67f 68f
12:10am  -   -   -  16 22 mph 1024.5mb 67f 68f
12:00am  -   -   -  18 22 mph 1024.5mb 67f 68f
Thu 12/13 11:50pm 3ft 3s 4s 18 20 mph 1024.7mb 67f 68f
11:40pm  -   -   -  16 18 mph 1024.9mb 67f 68f
11:30pm  -   -   -  16 18 mph 1024.9mb 67f 68f
11:20pm  -   -   -  13 16 mph 1025.1mb 67f 68f
11:10pm  -   -   -  13 16 mph 1025.1mb 67f 68f
11:00pm  -   -   -  16 18 mph 1025mb - 68f
10:50pm 2.5ft 9s 4s 16 18 mph 1025.2mb 67f 68f
10:40pm  -   -   -  13 20 mph 1025.2mb 67f 67f
10:30pm  -   -   -  16 18 mph 1025.4mb 67f 68f
10:20pm  -   -   -  16 18 mph 1025.5mb 67f 67f
10:10pm  -   -   -  13 18 mph 1025.7mb 67f 67f
10:00pm  -   -   -  13 18 mph 1025.8mb 67f 67f
9:50pm 2.5ft 9s 4s 13 18 mph 1025.8mb 66f 67f
9:40pm  -   -   -  13 18 mph 1026mb 65f 67f
9:30pm  -   -   -  13 18 mph 1026mb 65f 67f
9:20pm  -   -   -  11 16 mph 1026.2mb 65f 67f
9:10pm  -   -   -  13 16 mph 1026.4mb 65f 67f
9:00pm  -   -   -  13 16 mph 1026.4mb - 67f
8:50pm 2.5ft 9s 4s 13 16 mph 1026.5mb 65f 67f
8:40pm  -   -   -  13 16 mph 1026.4mb 65f 67f
8:30pm  -   -   -  13 16 mph 1026.3mb 65f 67f
8:20pm  -   -   -  13 16 mph 1026.2mb 65f 66f
8:10pm  -   -   -  13 16 mph 1026.1mb 65f 66f
8:00pm  -   -   -  13 16 mph 1026.3mb - 66f
7:50pm 2ft  -  4s 11 16 mph - 65f 66f
7:40pm  -   -   -  11 13 mph 1026.4mb 65f 66f
7:30pm  -   -   -  11 13 mph 1026.3mb 65f 66f
7:20pm  -   -   -  11 13 mph 1026.3mb 65f 66f
7:10pm  -   -   -  11 13 mph 1026.2mb 65f 66f
7:00pm  -   -   -  11 13 mph 1026.3mb - 66f
6:50pm 2ft 8s 5s 11 13 mph 1026.3mb - 66f
6:40pm 2ft  -  5s 11 13 mph 1026.2mb 65f 66f
6:30pm  -   -   -  11 13 mph 1026.2mb 65f 65f
6:20pm  -   -   -  11 16 mph 1026mb 65f 65f
6:10pm  -   -   -  11 13 mph 1026.1mb 65f 64f
6:00pm  -   -   -  13 16 mph 1026.1mb 65f 64f
5:50pm 2.5ft 9s 5s 13 16 mph 1026.1mb 65f 64f
5:40pm  -   -   -  13 16 mph 1026mb 65f 64f
5:30pm  -   -   -  13 16 mph 1026mb - 63f
5:20pm  -   -   -  13 16 mph 1025.8mb 65f 63f
5:10pm  -   -   -  13 16 mph 1025.8mb 65f 63f
5:00pm  -   -   -  13 16 mph 1025.8mb 66f 62f
4:50pm 2ft 9s 5s 11 16 mph 1025.9mb 66f 62f
4:40pm  -   -   -  13 16 mph 1025.9mb 66f 62f
4:30pm  -   -   -  11 13 mph 1026mb 66f 62f
4:20pm  -   -   -  13 16 mph 1025.8mb 66f 62f
4:10pm  -   -   -  11 13 mph 1025.9mb 66f 62f
4:00pm  -   -   -  11 16 mph 1025.8mb 66f 62f
3:50pm 2ft 9s 6s 11 13 mph 1025.7mb 66f 62f
3:40pm  -   -   -  11 13 mph 1025.8mb 66f 62f
3:30pm  -   -   -  11 13 mph 1025.7mb 66f 61f
3:20pm  -   -   -  11 13 mph 1025.6mb 66f 61f
3:10pm  -   -   -  11 13 mph 1025.7mb 66f 61f
3:00pm  -   -   -  9 11 mph 1025.8mb 66f 61f
2:50pm 2ft 9s 6s 9 11 mph 1025.8mb 66f 61f
2:40pm 2ft  -  6s 9 11 mph 1025.8mb 66f 61f
2:30pm  -   -   -  9 11 mph 1025.8mb 66f 60f
2:20pm  -   -   -  9 11 mph 1025.7mb 65f 60f
2:10pm  -   -   -  9 11 mph 1025.8mb 66f 60f
2:00pm  -   -   -  9 11 mph 1025.8mb - 60f
1:50pm 2ft 9s 6s 9 11 mph 1025.7mb 65f 59f
1:40pm  -   -   -  9 11 mph 1025.6mb 66f 59f
1:30pm  -   -   -  9 11 mph 1025.7mb 66f 59f
1:20pm  -   -   -  7 9 mph 1025.6mb 66f 59f
1:10pm  -   -   -  7 9 mph 1025.8mb 66f 59f
1:00pm  -   -   -  7 9 mph - 66f 58f
12:50pm 2ft 9s 6s 7 9 mph 1026.3mb 66f 58f
12:40pm  -   -   -  7 9 mph 1026.5mb 66f 58f
12:30pm  -   -   -  7 9 mph 1026.5mb 66f 58f
12:20pm  -   -   -  7 9 mph 1026.6mb 66f 58f
12:10pm  -   -   -  7 9 mph 1026.7mb 66f 58f
12:00pm  -   -   -  7 9 mph 1027.1mb 66f 58f
11:50am 2ft 9s 6s 7 9 mph 1027.3mb 66f 58f
11:40am 2ft  -  6s 7 9 mph 1027.4mb 66f 58f
11:30am  -   -   -  7 9 mph 1027.7mb 66f 58f
11:20am  -   -   -  7 9 mph 1027.7mb 66f 58f
11:10am  -   -   -  7 7 mph 1027.7mb 66f 58f
11:00am  -   -   -  7 9 mph 1027.7mb 65f 58f
10:50am 2ft 9s 5s 4 7 mph 1028.1mb 65f 58f
10:40am  -   -   -  4 4 mph 1028mb 65f 58f
10:30am  -   -   -  4 7 mph 1028mb 65f 58f
10:20am  -   -   -  4 7 mph 1028mb 65f 58f
10:10am  -   -   -  2 4 mph 1028.2mb 65f 58f
10:00am  -   -   -  2 4 mph 1028mb 65f 58f
9:50am 2ft 9s 6s 4 7 mph 1027.9mb 65f 58f
9:40am 2ft  -  6s 4 7 mph 1027.7mb 65f 57f
9:30am  -   -   -  4 7 mph 1027.7mb 64f 57f
9:20am  -   -   -  4 7 mph 1027.8mb 64f 57f
9:10am  -   -   -  4 7 mph 1027.8mb 64f 57f
9:00am  -   -   -  4 7 mph 1027.7mb - 57f
8:50am 2.5ft 10s 5s 4 7 mph 1027.7mb 64f 57f
8:40am 2.5ft  -  5s 4 7 mph 1027.4mb - 57f
8:30am  -   -   -  4 7 mph 1027.1mb 64f 57f
8:20am  -   -   -  4 7 mph 1026.9mb 64f 57f
8:10am  -   -   -  4 7 mph 1026.9mb 64f 57f
8:00am  -   -   -  4 4 mph 1026.8mb 64f 57f
7:50am 2.5ft 10s 5s 4 7 mph 1026.8mb 64f 57f
7:40am  -   -   -  4 7 mph 1026.6mb - 57f
7:30am  -   -   -  4 7 mph 1026.4mb - 57f
7:20am  -   -   -  4 7 mph 1026.3mb 64f 57f
7:10am  -   -   -  4 7 mph 1026.2mb 64f 56f
7:00am  -   -   -  4 9 mph 1026mb 64f 56f
6:50am 2.5ft 9s 5s 7 9 mph 1025.9mb 64f 56f
6:40am  -   -   -  7 9 mph 1026mb 64f 56f
6:30am  -   -   -  7 11 mph 1026mb 64f 57f
6:20am  -   -   -  7 9 mph 1025.8mb 64f 57f
6:10am  -   -   -  7 9 mph 1025.7mb 64f 57f
6:00am  -   -   -  9 11 mph 1025.5mb - -
5:50am 2.5ft 10s 5s 7 11 mph 1025.3mb 64f 57f
5:40am  -   -   -  7 9 mph 1025.3mb 64f 57f
5:30am  -   -   -  7 11 mph 1025.2mb - 57f
5:20am  -   -   -  7 11 mph 1025.1mb 64f 57f
5:10am  -   -   -  7 11 mph 1025.1mb - 57f
5:00am  -   -   -  7 9 mph 1024.9mb 64f 57f
4:50am 2.5ft 10s 5s 7 11 mph 1024.6mb 64f 57f
4:40am 2.5ft  -  5s 7 9 mph 1024.6mb 64f 56f
4:30am  -   -   -  7 9 mph 1024.5mb 64f 56f
4:20am  -   -   -  7 9 mph 1024.4mb 64f 56f
4:10am  -   -   -  7 9 mph 1024.4mb 64f 56f
4:00am  -   -   -  7 11 mph 1024.4mb 64f 56f
3:50am 2.5ft 10s 5s 9 11 mph 1024.4mb 64f 56f
3:40am 2.5ft  -  5s 9 13 mph 1024.4mb 64f 56f
3:30am  -   -   -  9 13 mph 1024.4mb 64f 56f
3:20am  -   -   -  9 13 mph 1024.5mb 64f 56f
3:10am  -   -   -  11 16 mph 1024.7mb 64f 56f
3:00am  -   -   -  9 13 mph 1024.7mb 64f 55f
2:50am 2.5ft 10s 5s 11 13 mph 1024.8mb 64f 55f
2:40am  -   -   -  11 13 mph 1024.8mb 64f 55f
2:30am  -   -   -  11 13 mph 1024.8mb 64f 55f
2:20am  -   -   -  11 16 mph 1024.8mb 64f 55f
2:10am  -   -   -  11 18 mph 1024.8mb 64f 55f
2:00am  -   -   -  13 18 mph 1024.9mb 64f 56f
1:50am 2.5ft 10s 5s 11 16 mph 1024.9mb 64f 55f
1:40am  -   -   -  11 16 mph 1024.8mb 64f 55f
1:30am  -   -   -  11 16 mph 1024.9mb 64f 55f
1:20am  -   -   -  11 13 mph 1024.8mb 64f 55f
1:10am  -   -   -  11 16 mph 1024.8mb 64f 55f
1:00am  -   -   -  11 16 mph 1024.7mb 64f 55f
12:50am 2.5ft 9s 5s 11 16 mph 1024.7mb 64f 55f
12:40am  -   -   -  11 13 mph 1024.7mb 64f 55f
12:30am  -   -   -  13 16 mph 1024.6mb 64f 55f
12:20am  -   -   -  11 16 mph 1024.5mb 64f 55f
12:10am  -   -   -  11 16 mph 1024.5mb 64f 55f
12:00am  -   -   -  13 16 mph 1024.6mb 64f 55f
Wed 12/12 11:50pm 2.5ft 10s 5s 13 18 mph 1024.7mb 64f 55f
11:40pm  -   -   -  13 18 mph 1024.7mb - 55f
11:30pm  -   -   -  13 16 mph 1024.7mb 64f 55f
11:20pm  -   -   -  13 18 mph 1024.8mb 64f 55f
11:10pm  -   -   -  11 16 mph 1024.6mb 64f 55f
11:00pm  -   -   -  11 16 mph 1024.4mb 64f 55f
10:50pm 2.5ft 10s 6s 11 16 mph 1024.7mb 65f 55f
10:40pm  -   -   -  9 13 mph 1024.7mb 65f 55f
10:30pm  -   -   -  9 13 mph 1024.6mb 65f 55f
10:20pm  -   -   -  9 11 mph 1024.7mb 65f 55f
10:10pm  -   -   -  7 11 mph 1024.5mb 65f 54f
10:00pm  -   -   -  7 11 mph 1024.7mb 65f 54f
9:50pm 2.5ft 10s 5s 9 11 mph 1024.6mb 65f 55f
9:40pm  -   -   -  7 11 mph 1024.6mb 64f 55f
9:30pm  -   -   -  7 11 mph 1024.5mb 64f 55f
9:20pm  -   -   -  7 9 mph 1024.5mb 64f 55f
9:10pm  -   -   -  7 9 mph 1024.5mb 64f 55f
9:00pm  -   -   -  7 11 mph 1024.6mb 64f 55f
8:50pm 2.5ft 10s 6s 7 9 mph 1024.5mb 64f 55f
8:40pm  -   -   -  4 7 mph 1024.4mb 64f 55f
8:30pm  -   -   -  7 9 mph - 64f 54f
8:20pm  -   -   -  4 7 mph 1024.4mb 64f 55f
8:10pm  -   -   -  4 9 mph 1024.3mb 64f 54f
8:00pm  -   -   -  4 7 mph 1024.1mb 64f 54f
7:50pm 2.5ft 10s 6s 4 7 mph 1024.1mb 64f 55f
7:40pm 2.5ft  -  6s 4 7 mph 1024.1mb 64f 55f
7:30pm  -   -   -  4 7 mph 1023.9mb 64f 55f
7:20pm  -   -   -  4 7 mph 1023.7mb 64f 55f
7:10pm  -   -   -  4 7 mph 1023.8mb 64f 55f
7:00pm  -   -   -  4 7 mph 1023.6mb 64f 55f
6:50pm 2.5ft 10s 6s 2 7 mph 1023.5mb 64f 55f
6:40pm  -   -   -  4 7 mph 1023.5mb 64f 55f
6:30pm  -   -   -  4 7 mph 1023.3mb - 55f
6:20pm  -   -   -  4 7 mph 1023.3mb 64f 55f
6:10pm  -   -   -  4 7 mph 1023.3mb 65f 55f
6:00pm  -   -   -  4 7 mph 1023.1mb 65f 55f
5:50pm 2.5ft 10s 5s 4 7 mph 1023.3mb 64f 55f
5:40pm 2.5ft  -  5s 2 7 mph 1023.1mb 64f 54f
5:30pm  -   -   -  2 4 mph 1022.8mb - 54f
5:20pm  -   -   -  2 4 mph 1022.8mb 64f 54f